sensor_id;sensor_type;location;lat;lon;timestamp;P1;durP1;ratioP1;P2;durP2;ratioP2
32032;SDS011;31720;52.638;9.216;2023-07-13T00:02:15;2.35;;;2.15;;
32032;SDS011;31720;52.638;9.216;2023-07-13T00:05:16;3.20;;;2.13;;
32032;SDS011;31720;52.638;9.216;2023-07-13T00:08:18;9.38;;;2.60;;
32032;SDS011;31720;52.638;9.216;2023-07-13T00:11:19;5.25;;;2.33;;
32032;SDS011;31720;52.638;9.216;2023-07-13T00:14:22;3.60;;;2.22;;
32032;SDS011;31720;52.638;9.216;2023-07-13T00:17:24;4.55;;;2.60;;
32032;SDS011;31720;52.638;9.216;2023-07-13T00:20:25;3.28;;;2.30;;
32032;SDS011;31720;52.638;9.216;2023-07-13T00:23:27;4.60;;;2.42;;
32032;SDS011;31720;52.638;9.216;2023-07-13T00:26:28;2.45;;;1.90;;
32032;SDS011;31720;52.638;9.216;2023-07-13T00:29:31;5.75;;;2.40;;
32032;SDS011;31720;52.638;9.216;2023-07-13T00:32:33;4.25;;;2.40;;
32032;SDS011;31720;52.638;9.216;2023-07-13T00:35:35;3.28;;;2.17;;
32032;SDS011;31720;52.638;9.216;2023-07-13T00:38:38;4.22;;;2.22;;
32032;SDS011;31720;52.638;9.216;2023-07-13T00:41:39;2.50;;;2.00;;
32032;SDS011;31720;52.638;9.216;2023-07-13T00:48:28;3.72;;;2.17;;
32032;SDS011;31720;52.638;9.216;2023-07-13T00:51:33;4.90;;;2.20;;
32032;SDS011;31720;52.638;9.216;2023-07-13T00:54:39;8.65;;;2.10;;
32032;SDS011;31720;52.638;9.216;2023-07-13T00:57:44;2.20;;;2.00;;
32032;SDS011;31720;52.638;9.216;2023-07-13T01:00:47;4.50;;;2.15;;
32032;SDS011;31720;52.638;9.216;2023-07-13T01:03:50;2.83;;;2.05;;
32032;SDS011;31720;52.638;9.216;2023-07-13T01:06:52;4.93;;;1.98;;
32032;SDS011;31720;52.638;9.216;2023-07-13T01:09:54;2.80;;;1.88;;
32032;SDS011;31720;52.638;9.216;2023-07-13T01:12:55;6.05;;;2.28;;
32032;SDS011;31720;52.638;9.216;2023-07-13T01:15:58;8.85;;;2.40;;
32032;SDS011;31720;52.638;9.216;2023-07-13T01:19:16;3.95;;;2.90;;
32032;SDS011;31720;52.638;9.216;2023-07-13T01:22:31;3.72;;;2.30;;
32032;SDS011;31720;52.638;9.216;2023-07-13T01:25:32;7.45;;;2.35;;
32032;SDS011;31720;52.638;9.216;2023-07-13T01:28:35;2.10;;;1.73;;
32032;SDS011;31720;52.638;9.216;2023-07-13T01:31:37;2.92;;;2.20;;
32032;SDS011;31720;52.638;9.216;2023-07-13T01:34:38;4.95;;;2.20;;
32032;SDS011;31720;52.638;9.216;2023-07-13T01:37:43;2.47;;;2.13;;
32032;SDS011;31720;52.638;9.216;2023-07-13T01:40:45;7.47;;;2.47;;
32032;SDS011;31720;52.638;9.216;2023-07-13T01:43:46;5.60;;;1.85;;
32032;SDS011;31720;52.638;9.216;2023-07-13T01:46:48;2.45;;;2.10;;
32032;SDS011;31720;52.638;9.216;2023-07-13T01:49:49;10.43;;;2.00;;
32032;SDS011;31720;52.638;9.216;2023-07-13T01:52:53;4.63;;;1.80;;
32032;SDS011;31720;52.638;9.216;2023-07-13T01:55:54;3.72;;;1.83;;
32032;SDS011;31720;52.638;9.216;2023-07-13T01:58:56;2.65;;;1.90;;
32032;SDS011;31720;52.638;9.216;2023-07-13T02:01:57;2.67;;;2.10;;
32032;SDS011;31720;52.638;9.216;2023-07-13T02:04:58;4.28;;;2.28;;
32032;SDS011;31720;52.638;9.216;2023-07-13T02:08:01;4.78;;;2.28;;
32032;SDS011;31720;52.638;9.216;2023-07-13T02:11:02;2.38;;;1.92;;
32032;SDS011;31720;52.638;9.216;2023-07-13T02:14:04;4.32;;;2.35;;
32032;SDS011;31720;52.638;9.216;2023-07-13T02:17:05;3.65;;;2.13;;
32032;SDS011;31720;52.638;9.216;2023-07-13T02:20:07;4.80;;;2.20;;
32032;SDS011;31720;52.638;9.216;2023-07-13T02:23:11;3.33;;;1.73;;
32032;SDS011;31720;52.638;9.216;2023-07-13T02:26:13;2.55;;;2.15;;
32032;SDS011;31720;52.638;9.216;2023-07-13T02:29:14;5.68;;;2.83;;
32032;SDS011;31720;52.638;9.216;2023-07-13T02:32:15;2.90;;;2.13;;
32032;SDS011;31720;52.638;9.216;2023-07-13T02:35:17;3.03;;;2.15;;
32032;SDS011;31720;52.638;9.216;2023-07-13T02:38:19;4.93;;;2.20;;
32032;SDS011;31720;52.638;9.216;2023-07-13T02:41:21;9.70;;;2.50;;
32032;SDS011;31720;52.638;9.216;2023-07-13T02:44:23;4.45;;;2.05;;
32032;SDS011;31720;52.638;9.216;2023-07-13T02:47:24;2.53;;;1.60;;
32032;SDS011;31720;52.638;9.216;2023-07-13T02:50:26;2.90;;;1.88;;
32032;SDS011;31720;52.638;9.216;2023-07-13T02:53:29;4.35;;;1.80;;
32032;SDS011;31720;52.638;9.216;2023-07-13T02:56:31;5.05;;;2.13;;
32032;SDS011;31720;52.638;9.216;2023-07-13T02:59:33;3.95;;;1.60;;
32032;SDS011;31720;52.638;9.216;2023-07-13T03:02:34;8.18;;;1.85;;
32032;SDS011;31720;52.638;9.216;2023-07-13T03:05:36;4.38;;;1.42;;
32032;SDS011;31720;52.638;9.216;2023-07-13T03:08:40;8.57;;;2.15;;
32032;SDS011;31720;52.638;9.216;2023-07-13T03:11:41;5.47;;;1.92;;
32032;SDS011;31720;52.638;9.216;2023-07-13T03:14:42;3.03;;;1.40;;
32032;SDS011;31720;52.638;9.216;2023-07-13T03:17:44;4.55;;;1.50;;
32032;SDS011;31720;52.638;9.216;2023-07-13T03:20:45;7.65;;;1.70;;
32032;SDS011;31720;52.638;9.216;2023-07-13T03:23:48;4.95;;;1.25;;
32032;SDS011;31720;52.638;9.216;2023-07-13T03:26:49;3.85;;;1.20;;
32032;SDS011;31720;52.638;9.216;2023-07-13T03:29:50;5.97;;;1.88;;
32032;SDS011;31720;52.638;9.216;2023-07-13T03:32:51;3.92;;;1.20;;
32032;SDS011;31720;52.638;9.216;2023-07-13T03:35:53;2.65;;;1.58;;
32032;SDS011;31720;52.638;9.216;2023-07-13T03:38:56;4.07;;;1.40;;
32032;SDS011;31720;52.638;9.216;2023-07-13T03:41:59;2.92;;;1.50;;
32032;SDS011;31720;52.638;9.216;2023-07-13T03:45:00;3.42;;;1.15;;
32032;SDS011;31720;52.638;9.216;2023-07-13T03:48:02;1.70;;;1.10;;
32032;SDS011;31720;52.638;9.216;2023-07-13T03:51:03;3.15;;;1.30;;
32032;SDS011;31720;52.638;9.216;2023-07-13T03:54:06;1.42;;;1.30;;
32032;SDS011;31720;52.638;9.216;2023-07-13T03:57:07;6.18;;;1.50;;
32032;SDS011;31720;52.638;9.216;2023-07-13T04:00:10;3.22;;;1.48;;
32032;SDS011;31720;52.638;9.216;2023-07-13T04:03:12;3.05;;;1.00;;
32032;SDS011;31720;52.638;9.216;2023-07-13T04:06:14;1.45;;;1.23;;
32032;SDS011;31720;52.638;9.216;2023-07-13T04:09:22;2.97;;;1.17;;
32032;SDS011;31720;52.638;9.216;2023-07-13T04:12:23;10.38;;;1.33;;
32032;SDS011;31720;52.638;9.216;2023-07-13T04:15:24;3.92;;;1.67;;
32032;SDS011;31720;52.638;9.216;2023-07-13T04:18:27;5.72;;;1.73;;
32032;SDS011;31720;52.638;9.216;2023-07-13T04:21:29;5.93;;;1.40;;
32032;SDS011;31720;52.638;9.216;2023-07-13T04:24:32;2.95;;;1.20;;
32032;SDS011;31720;52.638;9.216;2023-07-13T04:27:34;2.30;;;1.17;;
32032;SDS011;31720;52.638;9.216;2023-07-13T04:30:35;4.70;;;1.17;;
32032;SDS011;31720;52.638;9.216;2023-07-13T04:33:36;2.83;;;1.27;;
32032;SDS011;31720;52.638;9.216;2023-07-13T04:36:38;5.32;;;1.35;;
32032;SDS011;31720;52.638;9.216;2023-07-13T04:39:40;5.20;;;1.20;;
32032;SDS011;31720;52.638;9.216;2023-07-13T04:42:42;2.30;;;0.95;;
32032;SDS011;31720;52.638;9.216;2023-07-13T04:45:43;4.88;;;1.10;;
32032;SDS011;31720;52.638;9.216;2023-07-13T04:48:44;3.47;;;1.35;;
32032;SDS011;31720;52.638;9.216;2023-07-13T04:51:46;1.38;;;1.00;;
32032;SDS011;31720;52.638;9.216;2023-07-13T04:54:48;8.52;;;2.25;;
32032;SDS011;31720;52.638;9.216;2023-07-13T04:57:50;3.25;;;1.60;;
32032;SDS011;31720;52.638;9.216;2023-07-13T05:00:52;2.88;;;1.30;;
32032;SDS011;31720;52.638;9.216;2023-07-13T05:03:53;2.08;;;1.20;;
32032;SDS011;31720;52.638;9.216;2023-07-13T05:06:58;2.05;;;1.20;;
32032;SDS011;31720;52.638;9.216;2023-07-13T05:10:01;5.90;;;1.60;;
32032;SDS011;31720;52.638;9.216;2023-07-13T05:13:03;5.00;;;1.35;;
32032;SDS011;31720;52.638;9.216;2023-07-13T05:16:05;4.13;;;1.52;;
32032;SDS011;31720;52.638;9.216;2023-07-13T05:19:07;4.28;;;1.67;;
32032;SDS011;31720;52.638;9.216;2023-07-13T05:22:09;7.78;;;1.88;;
32032;SDS011;31720;52.638;9.216;2023-07-13T05:25:12;6.07;;;1.58;;
32032;SDS011;31720;52.638;9.216;2023-07-13T05:28:14;3.92;;;1.33;;
32032;SDS011;31720;52.638;9.216;2023-07-13T05:31:15;4.65;;;1.60;;
32032;SDS011;31720;52.638;9.216;2023-07-13T05:34:17;3.88;;;1.55;;
32032;SDS011;31720;52.638;9.216;2023-07-13T05:37:18;6.78;;;1.63;;
32032;SDS011;31720;52.638;9.216;2023-07-13T05:40:21;6.35;;;1.77;;
32032;SDS011;31720;52.638;9.216;2023-07-13T05:43:22;6.93;;;1.80;;
32032;SDS011;31720;52.638;9.216;2023-07-13T05:46:24;3.92;;;1.10;;
32032;SDS011;31720;52.638;9.216;2023-07-13T05:49:25;4.10;;;1.33;;
32032;SDS011;31720;52.638;9.216;2023-07-13T05:52:27;7.32;;;1.80;;
32032;SDS011;31720;52.638;9.216;2023-07-13T05:55:30;3.78;;;1.20;;
32032;SDS011;31720;52.638;9.216;2023-07-13T05:58:31;5.70;;;2.03;;
32032;SDS011;31720;52.638;9.216;2023-07-13T06:01:32;3.35;;;1.20;;
32032;SDS011;31720;52.638;9.216;2023-07-13T06:04:34;7.18;;;1.58;;
32032;SDS011;31720;52.638;9.216;2023-07-13T06:07:35;4.00;;;1.80;;
32032;SDS011;31720;52.638;9.216;2023-07-13T06:10:38;1.45;;;0.95;;
32032;SDS011;31720;52.638;9.216;2023-07-13T06:13:39;2.08;;;1.20;;
32032;SDS011;31720;52.638;9.216;2023-07-13T06:16:41;3.08;;;1.27;;
32032;SDS011;31720;52.638;9.216;2023-07-13T06:19:43;6.85;;;1.35;;
32032;SDS011;31720;52.638;9.216;2023-07-13T06:22:45;12.00;;;1.00;;
32032;SDS011;31720;52.638;9.216;2023-07-13T06:25:48;3.90;;;1.80;;
32032;SDS011;31720;52.638;9.216;2023-07-13T06:28:49;1.48;;;1.13;;
32032;SDS011;31720;52.638;9.216;2023-07-13T06:31:50;2.65;;;1.48;;
32032;SDS011;31720;52.638;9.216;2023-07-13T06:34:52;4.28;;;1.52;;
32032;SDS011;31720;52.638;9.216;2023-07-13T06:37:53;4.60;;;1.30;;
32032;SDS011;31720;52.638;9.216;2023-07-13T06:40:56;2.05;;;1.33;;
32032;SDS011;31720;52.638;9.216;2023-07-13T06:43:57;4.72;;;1.27;;
32032;SDS011;31720;52.638;9.216;2023-07-13T06:46:58;6.72;;;1.30;;
32032;SDS011;31720;52.638;9.216;2023-07-13T06:50:00;11.88;;;1.20;;
32032;SDS011;31720;52.638;9.216;2023-07-13T06:53:02;8.00;;;2.00;;
32032;SDS011;31720;52.638;9.216;2023-07-13T06:56:04;5.10;;;1.60;;
32032;SDS011;31720;52.638;9.216;2023-07-13T06:59:06;4.70;;;1.58;;
32032;SDS011;31720;52.638;9.216;2023-07-13T07:02:08;5.30;;;1.90;;
32032;SDS011;31720;52.638;9.216;2023-07-13T07:05:10;4.35;;;1.80;;
32032;SDS011;31720;52.638;9.216;2023-07-13T07:08:11;3.80;;;1.42;;
32032;SDS011;31720;52.638;9.216;2023-07-13T07:11:16;6.18;;;1.88;;
32032;SDS011;31720;52.638;9.216;2023-07-13T07:14:18;6.47;;;2.28;;
32032;SDS011;31720;52.638;9.216;2023-07-13T07:17:20;9.10;;;1.67;;
32032;SDS011;31720;52.638;9.216;2023-07-13T07:20:21;3.35;;;1.40;;
32032;SDS011;31720;52.638;9.216;2023-07-13T07:23:23;4.97;;;1.52;;
32032;SDS011;31720;52.638;9.216;2023-07-13T07:26:25;7.65;;;2.05;;
32032;SDS011;31720;52.638;9.216;2023-07-13T07:29:27;6.32;;;1.50;;
32032;SDS011;31720;52.638;9.216;2023-07-13T07:32:28;4.75;;;1.50;;
32032;SDS011;31720;52.638;9.216;2023-07-13T07:35:30;7.28;;;1.35;;
32032;SDS011;31720;52.638;9.216;2023-07-13T07:38:31;5.05;;;1.50;;
32032;SDS011;31720;52.638;9.216;2023-07-13T07:41:34;6.82;;;1.42;;
32032;SDS011;31720;52.638;9.216;2023-07-13T07:44:35;10.82;;;1.88;;
32032;SDS011;31720;52.638;9.216;2023-07-13T07:47:37;9.45;;;2.30;;
32032;SDS011;31720;52.638;9.216;2023-07-13T07:50:38;8.60;;;1.85;;
32032;SDS011;31720;52.638;9.216;2023-07-13T07:53:40;4.60;;;1.45;;
32032;SDS011;31720;52.638;9.216;2023-07-13T07:56:42;5.82;;;1.70;;
32032;SDS011;31720;52.638;9.216;2023-07-13T07:59:44;3.90;;;1.83;;
32032;SDS011;31720;52.638;9.216;2023-07-13T08:02:45;6.65;;;1.15;;
32032;SDS011;31720;52.638;9.216;2023-07-13T08:05:48;4.05;;;1.52;;
32032;SDS011;31720;52.638;9.216;2023-07-13T08:08:49;5.10;;;1.45;;
32032;SDS011;31720;52.638;9.216;2023-07-13T08:11:52;7.05;;;1.58;;
32032;SDS011;31720;52.638;9.216;2023-07-13T08:14:54;7.32;;;1.90;;
32032;SDS011;31720;52.638;9.216;2023-07-13T08:17:57;3.60;;;1.20;;
32032;SDS011;31720;52.638;9.216;2023-07-13T08:21:02;5.72;;;1.58;;
32032;SDS011;31720;52.638;9.216;2023-07-13T08:24:04;3.15;;;1.00;;
32032;SDS011;31720;52.638;9.216;2023-07-13T08:27:07;7.97;;;1.40;;
32032;SDS011;31720;52.638;9.216;2023-07-13T08:30:09;13.55;;;1.63;;
32032;SDS011;31720;52.638;9.216;2023-07-13T08:33:11;9.40;;;1.60;;
32032;SDS011;31720;52.638;9.216;2023-07-13T08:36:12;3.30;;;1.45;;
32032;SDS011;31720;52.638;9.216;2023-07-13T08:39:13;3.60;;;1.30;;
32032;SDS011;31720;52.638;9.216;2023-07-13T08:42:18;4.18;;;1.77;;
32032;SDS011;31720;52.638;9.216;2023-07-13T08:45:33;1.95;;;1.30;;
32032;SDS011;31720;52.638;9.216;2023-07-13T08:48:43;3.10;;;1.50;;
32032;SDS011;31720;52.638;9.216;2023-07-13T08:51:48;2.13;;;0.85;;
32032;SDS011;31720;52.638;9.216;2023-07-13T08:54:52;4.03;;;0.73;;
32032;SDS011;31720;52.638;9.216;2023-07-13T08:57:59;4.45;;;1.45;;
32032;SDS011;31720;52.638;9.216;2023-07-13T09:01:10;2.35;;;1.30;;
32032;SDS011;31720;52.638;9.216;2023-07-13T09:04:21;2.92;;;0.98;;
32032;SDS011;31720;52.638;9.216;2023-07-13T09:07:29;1.60;;;0.73;;
32032;SDS011;31720;52.638;9.216;2023-07-13T09:10:37;1.50;;;0.73;;
32032;SDS011;31720;52.638;9.216;2023-07-13T09:13:48;1.77;;;0.93;;
32032;SDS011;31720;52.638;9.216;2023-07-13T09:16:56;2.72;;;1.00;;
32032;SDS011;31720;52.638;9.216;2023-07-13T09:19:59;4.45;;;1.13;;
32032;SDS011;31720;52.638;9.216;2023-07-13T09:23:09;2.40;;;0.95;;
32032;SDS011;31720;52.638;9.216;2023-07-13T09:29:22;5.80;;;1.35;;
32032;SDS011;31720;52.638;9.216;2023-07-13T09:32:29;3.97;;;0.98;;
32032;SDS011;31720;52.638;9.216;2023-07-13T09:35:31;1.77;;;0.80;;
32032;SDS011;31720;52.638;9.216;2023-07-13T09:38:32;4.82;;;0.93;;
32032;SDS011;31720;52.638;9.216;2023-07-13T09:41:36;3.90;;;1.05;;
32032;SDS011;31720;52.638;9.216;2023-07-13T09:44:49;2.65;;;1.02;;
32032;SDS011;31720;52.638;9.216;2023-07-13T09:47:58;2.28;;;1.02;;
32032;SDS011;31720;52.638;9.216;2023-07-13T09:51:03;5.45;;;1.48;;
32032;SDS011;31720;52.638;9.216;2023-07-13T09:54:18;3.47;;;1.27;;
32032;SDS011;31720;52.638;9.216;2023-07-13T09:57:22;2.15;;;1.38;;
32032;SDS011;31720;52.638;9.216;2023-07-13T10:00:27;5.57;;;1.40;;
32032;SDS011;31720;52.638;9.216;2023-07-13T10:03:30;5.88;;;1.50;;
32032;SDS011;31720;52.638;9.216;2023-07-13T10:06:38;5.15;;;1.38;;
32032;SDS011;31720;52.638;9.216;2023-07-13T10:09:40;2.88;;;1.10;;
32032;SDS011;31720;52.638;9.216;2023-07-13T10:12:42;1.95;;;0.80;;
32032;SDS011;31720;52.638;9.216;2023-07-13T10:15:46;2.33;;;1.00;;
32032;SDS011;31720;52.638;9.216;2023-07-13T10:18:50;3.70;;;1.40;;
32032;SDS011;31720;52.638;9.216;2023-07-13T10:21:57;1.77;;;1.20;;
32032;SDS011;31720;52.638;9.216;2023-07-13T10:25:00;1.50;;;0.93;;
32032;SDS011;31720;52.638;9.216;2023-07-13T10:28:03;3.90;;;1.23;;
32032;SDS011;31720;52.638;9.216;2023-07-13T10:31:14;3.92;;;0.98;;
32032;SDS011;31720;52.638;9.216;2023-07-13T10:34:17;1.48;;;0.82;;
32032;SDS011;31720;52.638;9.216;2023-07-13T10:37:19;4.28;;;0.93;;
32032;SDS011;31720;52.638;9.216;2023-07-13T10:40:25;2.00;;;0.95;;
32032;SDS011;31720;52.638;9.216;2023-07-13T10:43:33;2.30;;;1.15;;
32032;SDS011;31720;52.638;9.216;2023-07-13T10:46:39;3.58;;;0.90;;
32032;SDS011;31720;52.638;9.216;2023-07-13T10:49:41;1.75;;;1.00;;
32032;SDS011;31720;52.638;9.216;2023-07-13T10:52:45;3.25;;;1.00;;
32032;SDS011;31720;52.638;9.216;2023-07-13T10:55:55;2.05;;;1.02;;
32032;SDS011;31720;52.638;9.216;2023-07-13T10:59:01;2.03;;;0.80;;
32032;SDS011;31720;52.638;9.216;2023-07-13T11:02:13;5.00;;;2.53;;
32032;SDS011;31720;52.638;9.216;2023-07-13T11:05:26;1.10;;;1.00;;
32032;SDS011;31720;52.638;9.216;2023-07-13T11:08:32;1.95;;;0.90;;
32032;SDS011;31720;52.638;9.216;2023-07-13T11:11:37;3.28;;;1.10;;
32032;SDS011;31720;52.638;9.216;2023-07-13T11:14:42;1.90;;;0.80;;
32032;SDS011;31720;52.638;9.216;2023-07-13T11:17:48;2.35;;;1.05;;
32032;SDS011;31720;52.638;9.216;2023-07-13T11:20:51;4.00;;;1.52;;
32032;SDS011;31720;52.638;9.216;2023-07-13T11:23:53;2.72;;;1.17;;
32032;SDS011;31720;52.638;9.216;2023-07-13T11:27:09;2.28;;;1.20;;
32032;SDS011;31720;52.638;9.216;2023-07-13T11:30:35;7.07;;;1.30;;
32032;SDS011;31720;52.638;9.216;2023-07-13T11:33:49;3.22;;;1.17;;
32032;SDS011;31720;52.638;9.216;2023-07-13T11:36:52;1.48;;;1.17;;
32032;SDS011;31720;52.638;9.216;2023-07-13T11:39:54;7.15;;;1.27;;
32032;SDS011;31720;52.638;9.216;2023-07-13T11:42:58;2.08;;;0.75;;
32032;SDS011;31720;52.638;9.216;2023-07-13T11:46:13;1.40;;;1.00;;
32032;SDS011;31720;52.638;9.216;2023-07-13T11:49:17;0.80;;;0.70;;
32032;SDS011;31720;52.638;9.216;2023-07-13T11:52:20;1.73;;;1.02;;
32032;SDS011;31720;52.638;9.216;2023-07-13T11:55:24;1.95;;;0.88;;
32032;SDS011;31720;52.638;9.216;2023-07-13T11:58:26;4.07;;;1.40;;
32032;SDS011;31720;52.638;9.216;2023-07-13T12:01:30;2.85;;;1.10;;
32032;SDS011;31720;52.638;9.216;2023-07-13T12:04:34;2.17;;;0.77;;
32032;SDS011;31720;52.638;9.216;2023-07-13T12:07:36;4.55;;;1.10;;
32032;SDS011;31720;52.638;9.216;2023-07-13T12:10:38;2.80;;;1.35;;
32032;SDS011;31720;52.638;9.216;2023-07-13T12:13:39;0.95;;;0.80;;
32032;SDS011;31720;52.638;9.216;2023-07-13T12:16:41;1.23;;;1.02;;
32032;SDS011;31720;52.638;9.216;2023-07-13T12:19:44;2.30;;;1.05;;
32032;SDS011;31720;52.638;9.216;2023-07-13T12:22:46;5.25;;;1.30;;
32032;SDS011;31720;52.638;9.216;2023-07-13T12:25:48;1.33;;;0.90;;
32032;SDS011;31720;52.638;9.216;2023-07-13T12:28:51;0.80;;;0.63;;
32032;SDS011;31720;52.638;9.216;2023-07-13T12:31:56;1.83;;;1.33;;
32032;SDS011;31720;52.638;9.216;2023-07-13T12:35:06;4.50;;;0.80;;
32032;SDS011;31720;52.638;9.216;2023-07-13T12:38:15;1.50;;;0.90;;
32032;SDS011;31720;52.638;9.216;2023-07-13T12:41:17;0.45;;;0.45;;
32032;SDS011;31720;52.638;9.216;2023-07-13T12:44:22;2.05;;;0.55;;
32032;SDS011;31720;52.638;9.216;2023-07-13T12:47:28;0.82;;;0.50;;
32032;SDS011;31720;52.638;9.216;2023-07-13T12:50:33;2.47;;;0.80;;
32032;SDS011;31720;52.638;9.216;2023-07-13T12:53:38;1.23;;;0.50;;
32032;SDS011;31720;52.638;9.216;2023-07-13T12:56:42;1.20;;;0.80;;
32032;SDS011;31720;52.638;9.216;2023-07-13T12:59:44;0.40;;;0.40;;
32032;SDS011;31720;52.638;9.216;2023-07-13T13:02:46;0.93;;;0.50;;
32032;SDS011;31720;52.638;9.216;2023-07-13T13:05:57;2.30;;;0.43;;
32032;SDS011;31720;52.638;9.216;2023-07-13T13:09:03;4.45;;;0.60;;
32032;SDS011;31720;52.638;9.216;2023-07-13T13:12:05;0.60;;;0.43;;
32032;SDS011;31720;52.638;9.216;2023-07-13T13:15:07;1.02;;;0.50;;
32032;SDS011;31720;52.638;9.216;2023-07-13T13:18:14;0.88;;;0.40;;
32032;SDS011;31720;52.638;9.216;2023-07-13T13:21:19;0.73;;;0.43;;
32032;SDS011;31720;52.638;9.216;2023-07-13T13:24:22;1.73;;;0.70;;
32032;SDS011;31720;52.638;9.216;2023-07-13T13:27:25;0.90;;;0.60;;
32032;SDS011;31720;52.638;9.216;2023-07-13T13:30:26;1.05;;;0.47;;
32032;SDS011;31720;52.638;9.216;2023-07-13T13:33:28;0.68;;;0.57;;
32032;SDS011;31720;52.638;9.216;2023-07-13T13:36:31;1.23;;;0.60;;
32032;SDS011;31720;52.638;9.216;2023-07-13T13:39:34;1.27;;;0.50;;
32032;SDS011;31720;52.638;9.216;2023-07-13T13:42:37;2.85;;;0.93;;
32032;SDS011;31720;52.638;9.216;2023-07-13T13:45:38;1.23;;;0.60;;
32032;SDS011;31720;52.638;9.216;2023-07-13T13:48:39;1.00;;;0.90;;
32032;SDS011;31720;52.638;9.216;2023-07-13T13:51:43;3.47;;;0.80;;
32032;SDS011;31720;52.638;9.216;2023-07-13T13:54:45;1.02;;;0.70;;
32032;SDS011;31720;52.638;9.216;2023-07-13T13:57:46;1.20;;;0.63;;
32032;SDS011;31720;52.638;9.216;2023-07-13T14:00:48;0.88;;;0.80;;
32032;SDS011;31720;52.638;9.216;2023-07-13T14:03:50;2.55;;;0.80;;
32032;SDS011;31720;52.638;9.216;2023-07-13T14:06:53;2.75;;;1.15;;
32032;SDS011;31720;52.638;9.216;2023-07-13T14:09:56;1.73;;;0.80;;
32032;SDS011;31720;52.638;9.216;2023-07-13T14:12:59;2.72;;;1.25;;
32032;SDS011;31720;52.638;9.216;2023-07-13T14:16:01;1.17;;;1.00;;
32032;SDS011;31720;52.638;9.216;2023-07-13T14:19:02;2.00;;;0.95;;
32032;SDS011;31720;52.638;9.216;2023-07-13T14:22:06;3.03;;;1.20;;
32032;SDS011;31720;52.638;9.216;2023-07-13T14:25:09;3.75;;;1.42;;
32032;SDS011;31720;52.638;9.216;2023-07-13T14:28:17;2.33;;;0.98;;
32032;SDS011;31720;52.638;9.216;2023-07-13T14:31:22;2.22;;;0.88;;
32032;SDS011;31720;52.638;9.216;2023-07-13T14:34:28;2.80;;;1.10;;
32032;SDS011;31720;52.638;9.216;2023-07-13T14:37:31;2.75;;;1.10;;
32032;SDS011;31720;52.638;9.216;2023-07-13T14:40:33;1.92;;;1.15;;
32032;SDS011;31720;52.638;9.216;2023-07-13T14:43:35;1.95;;;1.10;;
32032;SDS011;31720;52.638;9.216;2023-07-13T14:46:36;1.50;;;1.10;;
32032;SDS011;31720;52.638;9.216;2023-07-13T14:49:38;1.00;;;0.75;;
32032;SDS011;31720;52.638;9.216;2023-07-13T14:52:44;1.77;;;0.98;;
32032;SDS011;31720;52.638;9.216;2023-07-13T14:55:47;1.65;;;0.90;;
32032;SDS011;31720;52.638;9.216;2023-07-13T14:58:48;1.40;;;0.90;;
32032;SDS011;31720;52.638;9.216;2023-07-13T15:01:50;2.20;;;1.20;;
32032;SDS011;31720;52.638;9.216;2023-07-13T15:04:51;3.60;;;1.40;;
32032;SDS011;31720;52.638;9.216;2023-07-13T15:07:56;1.90;;;1.10;;
32032;SDS011;31720;52.638;9.216;2023-07-13T15:10:59;0.80;;;0.70;;
32032;SDS011;31720;52.638;9.216;2023-07-13T15:14:00;1.35;;;0.80;;
32032;SDS011;31720;52.638;9.216;2023-07-13T15:17:03;0.77;;;0.70;;
32032;SDS011;31720;52.638;9.216;2023-07-13T15:20:11;2.15;;;0.85;;
32032;SDS011;31720;52.638;9.216;2023-07-13T15:23:19;0.77;;;0.63;;
32032;SDS011;31720;52.638;9.216;2023-07-13T15:26:20;0.80;;;0.60;;
32032;SDS011;31720;52.638;9.216;2023-07-13T15:29:22;3.90;;;1.05;;
32032;SDS011;31720;52.638;9.216;2023-07-13T15:32:23;0.95;;;0.77;;
32032;SDS011;31720;52.638;9.216;2023-07-13T15:35:25;0.77;;;0.68;;
32032;SDS011;31720;52.638;9.216;2023-07-13T15:38:29;2.05;;;0.90;;
32032;SDS011;31720;52.638;9.216;2023-07-13T15:41:31;1.02;;;0.80;;
32032;SDS011;31720;52.638;9.216;2023-07-13T15:44:34;2.47;;;1.17;;
32032;SDS011;31720;52.638;9.216;2023-07-13T15:47:36;2.90;;;1.05;;
32032;SDS011;31720;52.638;9.216;2023-07-13T15:50:40;3.47;;;1.13;;
32032;SDS011;31720;52.638;9.216;2023-07-13T15:53:45;1.33;;;1.08;;
32032;SDS011;31720;52.638;9.216;2023-07-13T15:56:51;6.50;;;1.15;;
32032;SDS011;31720;52.638;9.216;2023-07-13T15:59:54;2.05;;;0.93;;
32032;SDS011;31720;52.638;9.216;2023-07-13T16:02:55;2.35;;;1.00;;
32032;SDS011;31720;52.638;9.216;2023-07-13T16:05:56;0.77;;;0.77;;
32032;SDS011;31720;52.638;9.216;2023-07-13T16:09:00;1.00;;;0.90;;
32032;SDS011;31720;52.638;9.216;2023-07-13T16:12:06;1.17;;;0.90;;
32032;SDS011;31720;52.638;9.216;2023-07-13T16:15:12;2.10;;;1.20;;
32032;SDS011;31720;52.638;9.216;2023-07-13T16:18:16;1.95;;;1.20;;
32032;SDS011;31720;52.638;9.216;2023-07-13T16:21:18;3.80;;;1.40;;
32032;SDS011;31720;52.638;9.216;2023-07-13T16:24:22;2.05;;;1.00;;
32032;SDS011;31720;52.638;9.216;2023-07-13T16:27:25;2.30;;;1.10;;
32032;SDS011;31720;52.638;9.216;2023-07-13T16:30:27;4.72;;;1.10;;
32032;SDS011;31720;52.638;9.216;2023-07-13T16:33:32;3.30;;;1.45;;
32032;SDS011;31720;52.638;9.216;2023-07-13T16:36:33;1.55;;;1.35;;
32032;SDS011;31720;52.638;9.216;2023-07-13T16:39:36;4.30;;;1.27;;
32032;SDS011;31720;52.638;9.216;2023-07-13T16:42:38;2.63;;;1.17;;
32032;SDS011;31720;52.638;9.216;2023-07-13T16:45:39;1.80;;;1.05;;
32032;SDS011;31720;52.638;9.216;2023-07-13T16:48:43;3.33;;;1.38;;
32032;SDS011;31720;52.638;9.216;2023-07-13T16:51:45;1.85;;;1.20;;
32032;SDS011;31720;52.638;9.216;2023-07-13T16:54:48;1.83;;;1.13;;
32032;SDS011;31720;52.638;9.216;2023-07-13T16:57:50;3.25;;;1.40;;
32032;SDS011;31720;52.638;9.216;2023-07-13T17:00:51;3.08;;;1.70;;
32032;SDS011;31720;52.638;9.216;2023-07-13T17:03:53;2.72;;;1.67;;
32032;SDS011;31720;52.638;9.216;2023-07-13T17:07:00;2.47;;;1.70;;
32032;SDS011;31720;52.638;9.216;2023-07-13T17:10:03;5.03;;;1.70;;
32032;SDS011;31720;52.638;9.216;2023-07-13T17:13:07;1.52;;;1.30;;
32032;SDS011;31720;52.638;9.216;2023-07-13T17:16:10;1.73;;;1.35;;
32032;SDS011;31720;52.638;9.216;2023-07-13T17:19:12;3.45;;;1.77;;
32032;SDS011;31720;52.638;9.216;2023-07-13T17:22:14;2.35;;;1.45;;
32032;SDS011;31720;52.638;9.216;2023-07-13T17:25:19;2.90;;;1.25;;
32032;SDS011;31720;52.638;9.216;2023-07-13T17:28:22;1.88;;;1.13;;
32032;SDS011;31720;52.638;9.216;2023-07-13T17:31:24;4.32;;;1.55;;
32032;SDS011;31720;52.638;9.216;2023-07-13T17:34:26;4.80;;;1.90;;
32032;SDS011;31720;52.638;9.216;2023-07-13T17:37:27;3.90;;;1.45;;
32032;SDS011;31720;52.638;9.216;2023-07-13T17:40:30;1.40;;;1.30;;
32032;SDS011;31720;52.638;9.216;2023-07-13T17:43:32;2.55;;;1.40;;
32032;SDS011;31720;52.638;9.216;2023-07-13T17:46:34;5.05;;;1.35;;
32032;SDS011;31720;52.638;9.216;2023-07-13T17:49:35;4.93;;;1.75;;
32032;SDS011;31720;52.638;9.216;2023-07-13T17:52:37;3.35;;;1.48;;
32032;SDS011;31720;52.638;9.216;2023-07-13T17:55:41;3.28;;;1.33;;
32032;SDS011;31720;52.638;9.216;2023-07-13T17:58:43;4.10;;;1.30;;
32032;SDS011;31720;52.638;9.216;2023-07-13T18:01:45;2.85;;;1.50;;
32032;SDS011;31720;52.638;9.216;2023-07-13T18:04:47;4.32;;;1.30;;
32032;SDS011;31720;52.638;9.216;2023-07-13T18:07:50;2.17;;;1.20;;
32032;SDS011;31720;52.638;9.216;2023-07-13T18:10:55;2.22;;;1.48;;
32032;SDS011;31720;52.638;9.216;2023-07-13T18:13:57;2.60;;;1.30;;
32032;SDS011;31720;52.638;9.216;2023-07-13T18:16:59;2.80;;;1.67;;
32032;SDS011;31720;52.638;9.216;2023-07-13T18:20:01;2.92;;;1.30;;
32032;SDS011;31720;52.638;9.216;2023-07-13T18:23:14;3.58;;;1.77;;
32032;SDS011;31720;52.638;9.216;2023-07-13T18:26:19;4.25;;;1.70;;
32032;SDS011;31720;52.638;9.216;2023-07-13T18:29:21;2.63;;;1.60;;
32032;SDS011;31720;52.638;9.216;2023-07-13T18:32:23;5.15;;;1.80;;